Time;durP1;ratioP1;P1;durP2;ratioP2;P2;SDS_P1;SDS_P2;PMS_P1;PMS_P2;Temp;Humidity;BMP_temperature;BMP_pressure;BME280_temperature;BME280_humidity;BME280_pressure;Samples;Min_cycle;Max_cycle;Signal;HPM_P1;HPM_P2
2023/02/11 00:01:06;;;;;;;;;;;;;;;3.23;59.05;100648.78;5046123;28;19986;-73
2023/02/11 00:03:32;;;;;;;;;;;;;;;3.22;59.06;100653.97;5063757;28;19916;-74
2023/02/11 00:06:01;;;;;;;;;;;;;;;3.20;59.09;100648.81;5063852;28;20383;-74
2023/02/11 00:08:26;;;;;;;;;;;;;;;3.18;59.58;100655.75;5047237;28;20292;-74
2023/02/11 00:10:54;;;;;;;;;;;;;;;3.17;59.17;100648.88;5069444;28;19924;-74
2023/02/11 00:13:20;;;;;;;;;;;;;;;3.18;59.03;100647.13;5074259;28;19916;-75
2023/02/11 00:15:45;;;;;;;;;;;;;;;3.16;59.05;100646.31;5073671;28;19923;-73
2023/02/11 00:18:11;;;;;;;;;;;;;;;3.13;59.02;100641.19;5075025;28;19920;-74
2023/02/11 00:20:39;;;;;;;;;;;;;;;3.12;59.16;100635.19;5075450;28;20409;-74
2023/02/11 00:23:04;;;;;;;;;;;;;;;3.10;59.41;100644.69;5074593;28;20385;-73
2023/02/11 00:25:29;;;;;;;;;;;;;;;3.08;59.25;100642.13;5060532;28;19920;-72
2023/02/11 00:27:55;;;;;;;;;;;;;;;3.08;59.23;100638.69;5060074;28;19916;-74
2023/02/11 00:30:20;;;;;;;;;;;;;;;3.06;59.55;100635.28;5077149;28;19939;-71
2023/02/11 00:32:45;;;;;;;;;;;;;;;3.04;59.12;100637.88;5076805;28;19967;-73
2023/02/11 00:35:11;;;;;;;;;;;;;;;3.04;59.11;100637.03;5077499;28;20309;-74
2023/02/11 00:37:37;;;;;;;;;;;;;;;3.02;59.22;100634.47;5076707;28;19916;-70
2023/02/11 00:40:05;;;;;;;;;;;;;;;3.02;59.33;100643.94;5077540;28;20298;-73
2023/02/11 00:42:31;;;;;;;;;;;;;;;3.01;58.96;100632.75;5060049;28;19959;-72
2023/02/11 00:44:56;;;;;;;;;;;;;;;3.00;59.09;100632.78;5076413;28;20013;-72
2023/02/11 00:47:21;;;;;;;;;;;;;;;2.98;59.31;100630.22;5076727;28;20284;-72
2023/02/11 00:49:47;;;;;;;;;;;;;;;2.96;59.08;100626.81;5056236;28;20384;-72
2023/02/11 00:52:12;;;;;;;;;;;;;;;2.96;59.07;100633.69;5074864;28;20004;-73
2023/02/11 00:54:37;;;;;;;;;;;;;;;2.94;59.28;100633.75;5074485;28;19916;-72
2023/02/11 00:57:03;;;;;;;;;;;;;;;2.92;59.29;100616.56;5056256;28;19917;-72
2023/02/11 00:59:28;;;;;;;;;;;;;;;2.91;59.34;100626.03;5039713;28;20934;-73
2023/02/11 01:01:53;;;;;;;;;;;;;;;2.90;59.39;100626.91;5039666;28;19924;-71
2023/02/11 01:04:18;;;;;;;;;;;;;;;2.88;58.87;100634.66;5073976;28;19916;-72
2023/02/11 01:06:44;;;;;;;;;;;;;;;2.87;59.38;100632.13;5056812;28;20021;-72
2023/02/11 01:09:09;;;;;;;;;;;;;;;2.85;59.04;100626.97;5039780;28;19920;-71
2023/02/11 01:11:34;;;;;;;;;;;;;;;2.85;58.97;100626.97;5056211;28;19923;-73
2023/02/11 01:14:00;;;;;;;;;;;;;;;2.84;59.15;100629.56;5055906;28;20293;-73
2023/02/11 01:16:25;;;;;;;;;;;;;;;2.82;59.15;100627.00;5039279;28;19923;-72
2023/02/11 01:18:50;;;;;;;;;;;;;;;2.81;59.22;100621.88;5056209;28;19967;-73
2023/02/11 01:21:16;;;;;;;;;;;;;;;2.79;59.12;100621.91;5056076;28;19931;-73
2023/02/11 01:23:41;;;;;;;;;;;;;;;2.79;59.60;100621.91;5039070;28;20306;-73
2023/02/11 01:26:06;;;;;;;;;;;;;;;2.78;59.52;100624.50;5074163;28;20298;-73
2023/02/11 01:28:32;;;;;;;;;;;;;;;2.77;59.63;100617.63;5055942;28;19917;-73
2023/02/11 01:30:57;;;;;;;;;;;;;;;2.75;59.25;100619.38;5055737;28;20007;-71
2023/02/11 01:33:22;;;;;;;;;;;;;;;2.75;59.46;100619.38;5056144;28;19967;-73
2023/02/11 01:35:47;;;;;;;;;;;;;;;2.74;59.24;100622.84;5069757;28;19928;-73
2023/02/11 01:38:14;;;;;;;;;;;;;;;2.72;59.57;100617.72;5059174;28;19916;-73
2023/02/11 01:40:39;;;;;;;;;;;;;;;2.69;59.09;100612.59;5076474;28;19920;-73
2023/02/11 01:43:04;;;;;;;;;;;;;;;2.69;59.39;100615.19;5093690;28;19922;-73
2023/02/11 01:45:56;;;;;;;;;;;;;;;2.69;59.30;100612.59;5075744;28;19916;-73
2023/02/11 01:48:26;;;;;;;;;;;;;;;2.66;59.42;100610.91;5054987;28;19916;-72
2023/02/11 01:50:53;;;;;;;;;;;;;;;2.64;59.01;100607.50;5055302;28;19916;-72
2023/02/11 01:58:46;;;;;;;;;;;;;;;2.58;59.57;100607.59;5073597;28;19953;-71
2023/02/11 02:01:11;;;;;;;;;;;;;;;2.57;59.36;100608.44;5071923;28;19917;-71
2023/02/11 02:03:38;;;;;;;;;;;;;;;2.56;59.25;100606.72;5055205;28;19963;-71
2023/02/11 02:06:09;;;;;;;;;;;;;;;2.57;59.22;100607.59;5071624;28;19916;-72
2023/02/11 02:08:39;;;;;;;;;;;;;;;2.54;58.72;100609.31;5071816;28;20027;-72
2023/02/11 02:11:04;;;;;;;;;;;;;;;2.53;58.80;100614.50;5071926;28;20312;-72
2023/02/11 02:13:30;;;;;;;;;;;;;;;2.53;59.29;100612.81;5071680;28;19916;-72
2023/02/11 02:15:56;;;;;;;;;;;;;;;2.53;59.23;100617.09;5071602;28;19920;-72
2023/02/11 02:18:21;;;;;;;;;;;;;;;2.50;59.20;100612.84;5071678;28;19923;-73
2023/02/11 02:20:51;;;;;;;;;;;;;;;2.49;59.09;100607.69;5054964;28;19925;-73
2023/02/11 02:23:17;;;;;;;;;;;;;;;2.48;59.28;100609.44;5071072;28;19935;-74
2023/02/11 02:25:48;;;;;;;;;;;;;;;2.47;59.18;100609.47;5053915;28;20380;-72
2023/02/11 02:28:32;;;;;;;;;;;;;;;2.46;59.10;100600.00;5072721;28;19916;-74
2023/02/11 02:31:16;;;;;;;;;;;;;;;2.45;59.32;100599.16;5073638;28;19920;-72
2023/02/11 02:33:46;;;;;;;;;;;;;;;2.43;59.44;100606.03;5074338;28;19930;-73
2023/02/11 02:36:29;;;;;;;;;;;;;;;2.42;59.03;100608.63;5075258;28;19916;-73
2023/02/11 02:38:59;;;;;;;;;;;;;;;2.41;59.31;100606.97;5093086;28;19924;-73
2023/02/11 02:41:28;;;;;;;;;;;;;;;2.39;58.98;100611.25;5057735;28;19927;-71
2023/02/11 02:43:54;;;;;;;;;;;;;;;2.37;59.26;100613.84;5057530;28;19920;-73
2023/02/11 02:46:20;;;;;;;;;;;;;;;2.37;58.85;100607.84;5074249;28;19968;-73
2023/02/11 02:48:48;;;;;;;;;;;;;;;2.34;58.79;100601.00;5075135;28;19916;-74
2023/02/11 02:51:16;;;;;;;;;;;;;;;2.32;59.35;100606.16;5074609;28;19916;-73
2023/02/11 02:53:44;;;;;;;;;;;;;;;2.30;58.75;100605.34;5092426;28;20319;-72
2023/02/11 02:56:13;;;;;;;;;;;;;;;2.30;59.13;100605.34;5074684;28;19916;-73
2023/02/11 02:58:38;;;;;;;;;;;;;;;2.28;59.25;100595.94;5074368;28;19938;-73
2023/02/11 03:01:23;;;;;;;;;;;;;;;2.26;58.87;100601.13;5092705;28;20449;-73
2023/02/11 03:04:07;;;;;;;;;;;;;;;2.25;58.80;100601.13;5074106;28;20302;-73
2023/02/11 03:06:33;;;;;;;;;;;;;;;2.25;58.50;100598.56;5074012;28;19916;-72
2023/02/11 03:09:00;;;;;;;;;;;;;;;2.23;58.41;100593.44;5057481;28;19923;-72
2023/02/11 03:11:25;;;;;;;;;;;;;;;2.20;59.29;100598.63;5074265;28;20310;-72
2023/02/11 03:13:50;;;;;;;;;;;;;;;2.19;58.44;100589.16;5074217;28;19916;-72
2023/02/11 03:16:20;;;;;;;;;;;;;;;2.17;58.76;100596.91;5074410;28;19923;-73
2023/02/11 03:18:50;;;;;;;;;;;;;;;2.16;58.60;100600.34;5073962;28;19920;-72
2023/02/11 03:21:15;;;;;;;;;;;;;;;2.15;58.48;100603.81;5074237;28;19994;-72
2023/02/11 03:23:55;;;;;;;;;;;;;;;2.15;58.91;100606.41;5056377;28;20350;-73
2023/02/11 03:26:20;;;;;;;;;;;;;;;2.12;58.66;100593.56;5057741;28;20330;-73
2023/02/11 03:28:50;;;;;;;;;;;;;;;2.12;58.58;100592.69;5091980;28;19930;-73
2023/02/11 03:31:18;;;;;;;;;;;;;;;2.10;58.54;100599.59;5074383;28;20008;-73
2023/02/11 03:33:53;;;;;;;;;;;;;;;2.08;58.55;100594.44;5091570;28;19916;-73
2023/02/11 03:36:20;;;;;;;;;;;;;;;2.07;58.62;100595.34;5056774;28;19955;-74
2023/02/11 03:38:46;;;;;;;;;;;;;;;2.05;58.97;100594.47;5073673;28;19917;-74
2023/02/11 03:41:12;;;;;;;;;;;;;;;2.04;58.73;100586.75;5092208;28;19916;-75
2023/02/11 03:43:39;;;;;;;;;;;;;;;2.03;58.43;100583.34;5056665;28;19973;-75
2023/02/11 03:46:04;;;;;;;;;;;;;;;2.03;58.80;100592.81;5057144;28;19997;-75
2023/02/11 03:48:30;;;;;;;;;;;;;;;2.02;58.77;100596.25;5073597;28;20383;-73
2023/02/11 03:50:56;;;;;;;;;;;;;;;1.99;58.82;100590.28;5073507;28;20015;-73
2023/02/11 03:53:21;;;;;;;;;;;;;;;1.98;58.58;100591.13;5073746;28;19916;-74
2023/02/11 03:55:47;;;;;;;;;;;;;;;1.98;58.79;100585.13;5073705;28;19946;-75
2023/02/11 03:58:12;;;;;;;;;;;;;;;1.98;58.61;100582.56;5073695;28;20314;-76
2023/02/11 04:00:38;;;;;;;;;;;;;;;1.97;59.16;100584.25;5091651;28;19918;-73
2023/02/11 04:03:04;;;;;;;;;;;;;;;1.98;58.76;100585.13;5056949;28;19955;-73
2023/02/11 04:05:29;;;;;;;;;;;;;;;1.97;58.90;100586.84;5073375;28;19959;-73
2023/02/11 04:07:54;;;;;;;;;;;;;;;1.97;58.97;100588.56;5073583;28;19969;-77
2023/02/11 04:10:20;;;;;;;;;;;;;;;1.97;58.50;100586.84;5056861;28;19958;-77
2023/02/11 04:12:45;;;;;;;;;;;;;;;1.96;58.92;100580.00;5074159;28;19916;-74
2023/02/11 04:15:10;;;;;;;;;;;;;;;1.95;58.29;100578.28;5056541;28;19924;-73
2023/02/11 04:17:36;;;;;;;;;;;;;;;1.93;58.87;100585.19;5073891;28;19923;-70
2023/02/11 04:20:01;;;;;;;;;;;;;;;1.94;58.42;100578.28;5091198;28;20395;-73
2023/02/11 04:22:26;;;;;;;;;;;;;;;1.94;58.42;100580.88;5057246;28;19966;-73
2023/02/11 04:24:52;;;;;;;;;;;;;;;1.92;58.23;100578.31;5056638;28;19928;-74
2023/02/11 04:27:17;;;;;;;;;;;;;;;1.91;58.89;100584.31;5073343;28;19948;-74
2023/02/11 04:29:42;;;;;;;;;;;;;;;1.90;58.57;100582.63;5073368;28;20306;-73
2023/02/11 04:32:08;;;;;;;;;;;;;;;1.90;58.93;100587.78;5073227;28;19917;-72
2023/02/11 04:34:33;;;;;;;;;;;;;;;1.88;58.74;100586.97;5073226;28;19916;-72
2023/02/11 04:36:58;;;;;;;;;;;;;;;1.87;58.54;100585.25;5073178;28;19966;-72
2023/02/11 04:39:24;;;;;;;;;;;;;;;1.86;59.07;100588.69;5073515;28;20280;-73
2023/02/11 04:41:49;;;;;;;;;;;;;;;1.86;58.63;100593.00;5073365;28;19931;-73
2023/02/11 04:44:14;;;;;;;;;;;;;;;1.85;58.62;100589.56;5091290;28;19927;-72
2023/02/11 04:46:39;;;;;;;;;;;;;;;1.84;58.41;100581.84;5073340;28;19969;-72
2023/02/11 04:49:05;;;;;;;;;;;;;;;1.84;58.85;100582.69;5093276;28;20355;-74
2023/02/11 04:51:30;;;;;;;;;;;;;;;1.84;58.16;100571.56;5077376;28;19916;-74
2023/02/11 04:53:55;;;;;;;;;;;;;;;1.82;58.44;100574.16;5076480;28;19990;-72
2023/02/11 04:56:21;;;;;;;;;;;;;;;1.80;58.33;100573.28;5076760;28;19916;-72
2023/02/11 04:58:46;;;;;;;;;;;;;;;1.79;58.14;100569.03;5076769;28;20020;-72
2023/02/11 05:01:13;;;;;;;;;;;;;;;1.78;58.37;100575.88;5077133;28;19916;-75
2023/02/11 05:03:38;;;;;;;;;;;;;;;1.78;58.71;100572.47;5094150;28;19916;-74
2023/02/11 05:06:04;;;;;;;;;;;;;;;1.76;58.13;100575.06;5076444;28;19986;-73
2023/02/11 05:08:29;;;;;;;;;;;;;;;1.76;58.46;100575.06;5076611;28;19973;-73
2023/02/11 05:10:54;;;;;;;;;;;;;;;1.76;57.91;100576.78;5076742;28;20007;-72
2023/02/11 05:13:19;;;;;;;;;;;;;;;1.76;57.97;100576.78;5076408;28;19916;-73
2023/02/11 05:15:45;;;;;;;;;;;;;;;1.76;58.10;100574.22;5076115;28;19917;-74
2023/02/11 05:18:10;;;;;;;;;;;;;;;1.77;58.21;100573.31;5076529;28;19920;-73
2023/02/11 05:20:38;;;;;;;;;;;;;;;1.77;57.95;100566.47;5076296;28;19958;-72
2023/02/11 05:23:04;;;;;;;;;;;;;;;1.79;58.13;100563.88;5076226;28;20314;-73
2023/02/11 05:25:29;;;;;;;;;;;;;;;1.81;58.11;100556.97;5059216;28;19916;-73
2023/02/11 05:27:54;;;;;;;;;;;;;;;1.82;57.97;100561.28;5076016;28;19930;-73
2023/02/11 05:30:20;;;;;;;;;;;;;;;1.85;58.25;100561.25;5094299;28;19916;-72
2023/02/11 05:32:45;;;;;;;;;;;;;;;1.90;58.13;100564.63;5075994;28;19917;-72
2023/02/11 05:35:10;;;;;;;;;;;;;;;2.10;57.01;100564.38;5059457;28;20345;-73
2023/02/11 05:37:36;;;;;;;;;;;;;;;2.52;56.35;100561.25;5059830;28;19916;-73
2023/02/11 05:40:01;;;;;;;;;;;;;;;2.91;55.61;100569.28;5093883;28;19916;-75
2023/02/11 05:42:26;;;;;;;;;;;;;;;3.33;54.46;100564.28;5075822;28;19966;-75
2023/02/11 05:44:51;;;;;;;;;;;;;;;3.75;53.94;100569.56;5076083;28;20015;-75
2023/02/11 05:47:17;;;;;;;;;;;;;;;4.05;53.81;100564.69;5075294;28;19920;-74
2023/02/11 05:49:42;;;;;;;;;;;;;;;4.40;53.46;100568.28;5093130;28;19943;-78
2023/02/11 05:52:07;;;;;;;;;;;;;;;4.75;53.14;100563.22;5075528;28;20010;-73
2023/02/11 05:54:33;;;;;;;;;;;;;;;5.12;52.61;100564.91;5093388;28;19923;-77
2023/02/11 05:56:58;;;;;;;;;;;;;;;5.45;52.20;100573.56;5090491;28;19920;-76
2023/02/11 05:59:23;;;;;;;;;;;;;;;5.84;51.38;100582.94;5056437;28;19985;-77
2023/02/11 06:01:49;;;;;;;;;;;;;;;6.23;50.49;100574.94;5072919;28;19920;-76
2023/02/11 06:04:14;;;;;;;;;;;;;;;6.64;49.88;100578.91;5038516;28;20070;-78
2023/02/11 06:06:39;;;;;;;;;;;;;;;7.05;49.59;100581.09;5055710;28;20026;-78
2023/02/11 06:09:04;;;;;;;;;;;;;;;7.42;49.31;100572.94;5055415;28;20436;-77
2023/02/11 06:11:30;;;;;;;;;;;;;;;7.81;51.03;100576.81;5038666;28;19938;-76
2023/02/11 06:13:55;;;;;;;;;;;;;;;8.23;51.75;100572.72;5056728;28;19926;-83
2023/02/11 06:16:20;;;;;;;;;;;;;;;8.78;52.45;100564.59;5056648;28;19920;-84
2023/02/11 06:18:46;;;;;;;;;;;;;;;9.40;52.77;100560.31;5056196;28;20015;-81
2023/02/11 06:21:12;;;;;;;;;;;;;;;10.13;52.45;100568.44;5039235;28;20315;-74
2023/02/11 06:23:37;;;;;;;;;;;;;;;10.83;52.45;100571.31;5072910;28;19925;-80
2023/02/11 06:26:03;;;;;;;;;;;;;;;11.47;52.30;100567.28;5072783;28;19978;-76
2023/02/11 06:28:30;;;;;;;;;;;;;;;12.09;51.73;100558.91;5048768;28;19916;-79
2023/02/11 06:30:55;;;;;;;;;;;;;;;12.72;51.46;100554.63;5074891;28;19920;-81
2023/02/11 06:33:21;;;;;;;;;;;;;;;13.55;55.22;100561.19;5098943;28;19979;-78
2023/02/11 06:35:46;;;;;;;;;;;;;;;14.34;54.86;100569.50;5074670;28;20294;-75
2023/02/11 06:38:11;;;;;;;;;;;;;;;15.12;51.51;100562.84;5058173;28;20462;-74
2023/02/11 06:40:37;;;;;;;;;;;;;;;15.70;46.47;100563.31;5057954;28;19916;-77
2023/02/11 06:43:02;;;;;;;;;;;;;;;15.89;36.14;100552.38;5093101;28;20334;-75
2023/02/11 06:45:27;;;;;;;;;;;;;;;16.09;32.58;100556.25;5074130;28;19916;-76
2023/02/11 06:47:53;;;;;;;;;;;;;;;16.38;34.23;100546.28;5074123;28;19916;-72
2023/02/11 06:50:18;;;;;;;;;;;;;;;17.26;40.97;100552.22;5074301;28;19912;-75
2023/02/11 06:52:43;;;;;;;;;;;;;;;18.10;39.03;100555.44;5093172;28;19916;-74
2023/02/11 06:55:08;;;;;;;;;;;;;;;18.63;35.64;100552.97;5057778;28;19912;-74
2023/02/11 06:57:34;;;;;;;;;;;;;;;19.25;33.74;100547.09;5094156;28;19927;-73
2023/02/11 06:59:59;;;;;;;;;;;;;;;19.68;28.58;100552.22;5061158;28;19919;-78
2023/02/11 07:02:24;;;;;;;;;;;;;;;20.48;28.22;100552.38;5074750;28;19920;-78
2023/02/11 07:04:50;;;;;;;;;;;;;;;21.20;26.10;100546.84;5073476;28;19916;-77
2023/02/11 07:07:15;;;;;;;;;;;;;;;21.97;26.64;100545.00;5048395;28;19920;-78
2023/02/11 07:09:41;;;;;;;;;;;;;;;23.00;30.52;100548.25;5079590;28;19916;-82
2023/02/11 07:12:08;;;;;;;;;;;;;;;23.58;27.72;100548.69;5063545;28;19916;-83
2023/02/11 07:14:33;;;;;;;;;;;;;;;23.92;26.75;100546.06;5062717;28;19916;-80
2023/02/11 07:16:58;;;;;;;;;;;;;;;24.32;29.05;100555.22;5080495;28;20020;-76
2023/02/11 07:19:23;;;;;;;;;;;;;;;24.95;29.30;100542.31;5081808;28;19947;-72
2023/02/11 07:21:49;;;;;;;;;;;;;;;24.66;28.45;100534.81;5062158;28;19924;-77
2023/02/11 07:24:14;;;;;;;;;;;;;;;24.41;27.66;100536.56;5043275;28;19924;-74
2023/02/11 07:26:40;;;;;;;;;;;;;;;23.95;27.67;100543.06;5053602;28;20016;-77
2023/02/11 07:29:05;;;;;;;;;;;;;;;23.47;26.63;100536.47;5052162;28;20353;-85
